Time;durP1;ratioP1;P1;durP2;ratioP2;P2;SDS_P1;SDS_P2;PMS_P1;PMS_P2;Temp;Humidity;BMP_temperature;BMP_pressure;BME280_temperature;BME280_humidity;BME280_pressure;Samples;Min_cycle;Max_cycle;Signal;HPM_P1;HPM_P2
2022/06/19 00:02:09;;;;;;;2.63;0.70;;;16.50;99.90;;;;;;4893373;29;20056;-68
2022/06/19 00:04:35;;;;;;;0.13;0.13;;;16.40;99.90;;;;;;4895477;29;20048;-69
2022/06/19 00:07:00;;;;;;;0.00;0.00;;;16.50;99.90;;;;;;4904637;29;20055;-68
2022/06/19 00:09:26;;;;;;;0.00;0.00;;;16.40;99.90;;;;;;4914243;29;20044;-69
2022/06/19 00:11:54;;;;;;;1.00;0.65;;;16.50;99.90;;;;;;4913105;29;20048;-68
2022/06/19 00:14:20;;;;;;;0.00;0.00;;;16.50;99.90;;;;;;4913509;29;20389;-69
2022/06/19 00:16:46;;;;;;;0.17;0.17;;;16.60;99.90;;;;;;4906257;29;20048;-68
2022/06/19 00:19:11;;;;;;;0.10;0.10;;;16.50;99.90;;;;;;4894835;29;20051;-68
2022/06/19 00:21:37;;;;;;;1.60;0.10;;;16.50;99.90;;;;;;4894802;29;20449;-68
2022/06/19 00:24:03;;;;;;;0.00;0.00;;;16.50;99.90;;;;;;4893304;29;20052;-68
2022/06/19 00:26:28;;;;;;;0.00;0.00;;;16.50;99.90;;;;;;4893623;29;20104;-68
2022/06/19 00:28:54;;;;;;;1.55;0.82;;;16.40;99.90;;;;;;4894635;29;20061;-68
2022/06/19 00:31:19;;;;;;;0.00;0.00;;;16.40;99.90;;;;;;4893301;29;20378;-68
2022/06/19 00:33:45;;;;;;;0.00;0.00;;;16.40;99.90;;;;;;4901693;29;20052;-69
2022/06/19 00:36:11;;;;;;;0.10;0.10;;;16.40;99.90;;;;;;4911508;29;20052;-69
2022/06/19 00:38:36;;;;;;;0.30;0.30;;;16.40;99.90;;;;;;4917021;29;20140;-68
2022/06/19 00:41:03;;;;;;;0.05;0.05;;;16.50;99.90;;;;;;4917148;29;20135;-69
2022/06/19 00:43:29;;;;;;;0.10;0.10;;;16.40;99.90;;;;;;4900509;29;20123;-69
2022/06/19 00:46:02;;;;;;;1.58;1.05;;;16.40;99.90;;;;;;4898770;29;20052;-69
2022/06/19 00:48:35;;;;;;;0.10;0.10;;;16.40;99.90;;;;;;4898308;29;20398;-68
2022/06/19 00:51:05;;;;;;;0.10;0.10;;;16.50;99.90;;;;;;4899272;29;20048;-68
2022/06/19 00:53:57;;;;;;;2.28;1.02;;;16.50;99.90;;;;;;4915861;29;20479;-69
2022/06/19 00:56:25;;;;;;;0.00;0.00;;;16.50;99.90;;;;;;4913358;29;20471;-69
2022/06/19 00:58:52;;;;;;;0.22;0.22;;;16.40;99.90;;;;;;4899614;29;20512;-69
2022/06/19 01:01:22;;;;;;;0.35;0.35;;;16.50;99.90;;;;;;4899572;29;20059;-69
2022/06/19 01:04:09;;;;;;;0.08;0.08;;;16.50;99.90;;;;;;4915496;29;20559;-68
2022/06/19 01:06:35;;;;;;;1.45;0.30;;;16.50;99.90;;;;;;4909847;29;20099;-68
2022/06/19 01:09:01;;;;;;;0.35;0.35;;;16.50;99.90;;;;;;4897649;29;20483;-68
2022/06/19 01:11:33;;;;;;;0.20;0.20;;;16.60;99.90;;;;;;4897652;29;20119;-68
2022/06/19 01:14:02;;;;;;;0.35;0.35;;;16.60;99.90;;;;;;4900442;29;20079;-68
2022/06/19 01:16:28;;;;;;;0.28;0.28;;;16.70;99.90;;;;;;4904060;29;20052;-69
2022/06/19 01:18:54;;;;;;;1.05;1.00;;;16.70;99.90;;;;;;4901056;29;20056;-68
2022/06/19 01:21:27;;;;;;;0.17;0.17;;;16.70;99.90;;;;;;4915904;29;20107;-69
2022/06/19 01:23:58;;;;;;;;;;;16.70;99.90;;;;;;4917411;29;20084;-69
2022/06/19 01:26:24;;;;;;;0.10;0.10;;;16.70;99.90;;;;;;4908732;29;20034;-69
2022/06/19 01:28:56;;;;;;;0.63;0.40;;;16.70;99.90;;;;;;4896993;29;20180;-68
2022/06/19 01:31:29;;;;;;;0.00;0.00;;;16.60;99.90;;;;;;4894880;29;20060;-68
2022/06/19 01:34:27;;;;;;;;;;;16.70;99.90;;;;;;4897862;29;20076;-69
2022/06/19 01:37:00;;;;;;;0.55;0.55;;;16.70;99.90;;;;;;4895783;29;19947;-69
2022/06/19 01:39:29;;;;;;;0.85;0.60;;;16.60;99.90;;;;;;4902210;29;20044;-69
2022/06/19 01:41:55;;;;;;;0.10;0.10;;;16.60;99.90;;;;;;4911472;29;20060;-68
2022/06/19 01:44:20;;;;;;;1.20;1.10;;;16.60;99.90;;;;;;4914472;29;20471;-69
2022/06/19 01:46:46;;;;;;;0.00;0.00;;;16.60;99.90;;;;;;4914212;29;20492;-68
2022/06/19 01:49:13;;;;;;;1.35;0.63;;;16.50;99.90;;;;;;4915180;29;20048;-69
2022/06/19 01:51:39;;;;;;;0.20;0.20;;;16.50;99.90;;;;;;4912684;29;20051;-69
2022/06/19 01:54:13;;;;;;;0.45;0.45;;;16.50;99.90;;;;;;4897676;29;20073;-69
2022/06/19 01:56:39;;;;;;;0.00;0.00;;;16.40;99.90;;;;;;4896023;29;20548;-69
2022/06/19 01:59:09;;;;;;;0.00;0.00;;;16.50;99.90;;;;;;4895816;29;20528;-68
2022/06/19 02:01:36;;;;;;;12.50;1.45;;;16.50;99.90;;;;;;4897608;29;20057;-68
2022/06/19 02:04:02;;;;;;;0.10;0.10;;;16.40;99.90;;;;;;4896376;29;20044;-68
2022/06/19 02:06:34;;;;;;;0.82;0.32;;;16.30;99.90;;;;;;4894964;29;20048;-69
2022/06/19 02:09:02;;;;;;;0.20;0.20;;;16.40;99.90;;;;;;4896717;29;20044;-69
2022/06/19 02:11:29;;;;;;;0.43;0.43;;;16.40;99.90;;;;;;4897887;29;20059;-69
2022/06/19 02:13:57;;;;;;;1.10;1.00;;;16.30;99.90;;;;;;4899517;29;20072;-69
2022/06/19 02:16:23;;;;;;;6.53;0.28;;;16.30;99.90;;;;;;4915628;29;20068;-69
2022/06/19 02:18:51;;;;;;;2.17;0.77;;;16.30;99.90;;;;;;4914759;29;20501;-68
2022/06/19 02:21:20;;;;;;;2.85;1.75;;;16.30;99.90;;;;;;4912979;29;20253;-69
2022/06/19 02:23:47;;;;;;;3.20;0.47;;;16.30;99.90;;;;;;4916061;29;20040;-69
2022/06/19 02:26:13;;;;;;;0.40;0.40;;;16.30;99.90;;;;;;4914301;29;20472;-68
2022/06/19 02:28:42;;;;;;;2.83;1.23;;;16.20;99.90;;;;;;4910714;29;20115;-68
2022/06/19 02:31:08;;;;;;;0.05;0.05;;;16.30;99.90;;;;;;4896122;29;20532;-69
2022/06/19 02:33:40;;;;;;;0.00;0.00;;;16.30;99.90;;;;;;4896205;29;20140;-69
2022/06/19 02:36:40;;;;;;;0.00;0.00;;;16.30;99.90;;;;;;4895571;29;20059;-68
2022/06/19 02:39:27;;;;;;;2.63;1.42;;;16.10;99.90;;;;;;4914803;29;20131;-68
2022/06/19 02:42:17;;;;;;;1.08;0.80;;;16.10;99.90;;;;;;4913849;29;20040;-69
2022/06/19 02:44:43;;;;;;;4.55;1.10;;;16.30;99.90;;;;;;4899045;29;20103;-68
2022/06/19 02:47:09;;;;;;;3.83;0.98;;;16.30;99.90;;;;;;4895998;29;20068;-68
2022/06/19 02:49:35;;;;;;;0.00;0.00;;;16.30;99.90;;;;;;4894589;29;20060;-68
2022/06/19 02:52:03;;;;;;;0.10;0.10;;;16.30;99.90;;;;;;4911837;29;20059;-69
2022/06/19 02:54:30;;;;;;;0.00;0.00;;;16.30;99.90;;;;;;4914997;29;20063;-68
2022/06/19 02:56:55;;;;;;;0.00;0.00;;;16.00;99.90;;;;;;4902300;29;20485;-68
2022/06/19 02:59:21;;;;;;;0.03;0.03;;;16.10;99.90;;;;;;4899598;29;20048;-68
2022/06/19 03:01:47;;;;;;;10.43;0.80;;;15.90;99.90;;;;;;4912496;29;20385;-68
2022/06/19 03:04:53;;;;;;;0.32;0.25;;;15.70;99.90;;;;;;4913248;29;20056;-68
2022/06/19 03:07:19;;;;;;;0.28;0.28;;;15.70;99.90;;;;;;4910947;29;20412;-67
2022/06/19 03:09:44;;;;;;;0.05;0.05;;;15.60;99.90;;;;;;4913260;29;20056;-66
2022/06/19 03:12:11;;;;;;;0.15;0.15;;;15.40;99.90;;;;;;4913188;29;20476;-66
2022/06/19 03:14:37;;;;;;;0.10;0.10;;;15.30;99.90;;;;;;4899503;29;20048;-66
2022/06/19 03:17:03;;;;;;;0.45;0.40;;;15.30;99.90;;;;;;4895275;29;20048;-66
2022/06/19 03:19:28;;;;;;;0.00;0.00;;;15.30;99.90;;;;;;4908630;29;20036;-66
2022/06/19 03:21:54;;;;;;;0.20;0.20;;;15.10;99.90;;;;;;4914729;29;20055;-66
2022/06/19 03:24:20;;;;;;;0.30;0.30;;;15.10;99.90;;;;;;4912683;29;20143;-65
2022/06/19 03:26:46;;;;;;;0.47;0.47;;;15.10;99.90;;;;;;4911070;29;20166;-66
2022/06/19 03:29:12;;;;;;;0.03;0.03;;;15.00;99.90;;;;;;4894996;29;20073;-66
2022/06/19 03:31:37;;;;;;;0.30;0.30;;;15.00;99.90;;;;;;4895062;29;20413;-66
2022/06/19 03:34:03;;;;;;;1.13;1.13;;;15.00;99.90;;;;;;4896292;29;20515;-66
2022/06/19 03:36:29;;;;;;;5.50;1.50;;;15.00;99.90;;;;;;4893824;29;20420;-66
2022/06/19 03:38:55;;;;;;;0.00;0.00;;;15.00;99.90;;;;;;4901188;29;20056;-66
2022/06/19 03:41:21;;;;;;;0.20;0.20;;;15.00;99.90;;;;;;4894836;29;20046;-66
2022/06/19 03:43:47;;;;;;;0.05;0.05;;;14.90;99.90;;;;;;4894293;29;20136;-66
2022/06/19 03:46:19;;;;;;;2.28;1.95;;;14.80;99.90;;;;;;4894255;29;20462;-66
2022/06/19 03:48:50;;;;;;;0.30;0.30;;;14.80;99.90;;;;;;4896364;29;20044;-66
2022/06/19 03:51:22;;;;;;;0.10;0.10;;;14.70;99.90;;;;;;4895008;29;20044;-66
2022/06/19 03:53:51;;;;;;;0.00;0.00;;;14.60;99.90;;;;;;4895309;29;20067;-66
2022/06/19 03:56:20;;;;;;;0.85;0.68;;;14.50;99.90;;;;;;4894269;29;20048;-66
2022/06/19 03:58:46;;;;;;;0.10;0.10;;;14.50;99.90;;;;;;4895744;29;20044;-66
2022/06/19 04:01:16;;;;;;;2.08;1.30;;;14.50;99.90;;;;;;4905504;29;20407;-66
2022/06/19 04:03:42;;;;;;;0.25;0.25;;;14.40;99.90;;;;;;4913945;29;20072;-66
2022/06/19 04:06:10;;;;;;;0.10;0.10;;;14.40;99.90;;;;;;4913842;29;20421;-66
2022/06/19 04:08:36;;;;;;;0.10;0.10;;;14.40;99.90;;;;;;4911876;29;20485;-66
2022/06/19 04:11:02;;;;;;;0.45;0.45;;;14.40;99.90;;;;;;4912413;29;20378;-66
2022/06/19 04:13:27;;;;;;;0.08;0.08;;;14.40;99.90;;;;;;4904646;29;20077;-66
2022/06/19 04:15:53;;;;;;;0.03;0.03;;;14.40;99.90;;;;;;4900980;29;20056;-66
2022/06/19 04:18:18;;;;;;;0.00;0.00;;;14.50;99.90;;;;;;4897728;29;20135;-67
2022/06/19 04:20:44;;;;;;;0.20;0.20;;;14.40;99.90;;;;;;4898427;29;20080;-66
2022/06/19 04:23:11;;;;;;;0.30;0.30;;;14.40;99.90;;;;;;4898593;29;20047;-66
2022/06/19 04:25:41;;;;;;;0.00;0.00;;;14.40;99.90;;;;;;4898699;29;20512;-66
2022/06/19 04:28:06;;;;;;;0.10;0.10;;;14.40;99.90;;;;;;4897450;29;20049;-66
2022/06/19 04:30:32;;;;;;;0.47;0.47;;;14.30;99.90;;;;;;4900941;29;20051;-66
2022/06/19 04:32:57;;;;;;;0.08;0.08;;;14.30;99.90;;;;;;4898698;29;20091;-66
2022/06/19 04:35:23;;;;;;;0.03;0.03;;;14.30;99.90;;;;;;4897417;29;20059;-66
2022/06/19 04:37:49;;;;;;;1.40;1.30;;;14.30;99.90;;;;;;4899079;29;20064;-66
2022/06/19 04:40:14;;;;;;;0.00;0.00;;;14.30;99.90;;;;;;4911199;29;20052;-66
2022/06/19 04:42:40;;;;;;;13.73;1.73;;;14.30;99.90;;;;;;4915831;29;20059;-67
2022/06/19 04:45:06;;;;;;;4.03;0.98;;;14.40;99.90;;;;;;4912619;29;20108;-66
2022/06/19 04:47:32;;;;;;;2.25;0.98;;;14.30;99.90;;;;;;4917245;29;20098;-67
2022/06/19 04:49:58;;;;;;;0.17;0.17;;;14.40;99.90;;;;;;4914924;29;20401;-66
2022/06/19 04:52:23;;;;;;;0.10;0.10;;;14.30;99.90;;;;;;4917316;29;20052;-67
2022/06/19 04:54:50;;;;;;;0.10;0.10;;;14.30;99.90;;;;;;4917734;29;20052;-66
2022/06/19 04:57:15;;;;;;;0.15;0.15;;;14.40;99.90;;;;;;4908992;29;20056;-67
2022/06/19 04:59:41;;;;;;;0.98;0.80;;;14.40;99.90;;;;;;4898430;29;20044;-67
2022/06/19 05:02:07;;;;;;;0.00;0.00;;;14.30;99.90;;;;;;4898211;29;20048;-67
2022/06/19 05:04:32;;;;;;;0.10;0.10;;;14.30;99.90;;;;;;4896725;29;20052;-67
2022/06/19 05:06:58;;;;;;;0.20;0.20;;;14.30;99.90;;;;;;4897791;29;20493;-67
2022/06/19 05:09:23;;;;;;;0.00;0.00;;;14.20;99.90;;;;;;4897554;29;20620;-67
2022/06/19 05:11:49;;;;;;;0.57;0.57;;;14.10;99.90;;;;;;4899736;29;20049;-67
2022/06/19 05:14:14;;;;;;;6.45;0.93;;;14.10;99.90;;;;;;4903298;29;20048;-68
2022/06/19 05:16:40;;;;;;;0.45;0.43;;;14.10;99.90;;;;;;4916562;29;20058;-68
2022/06/19 05:19:06;;;;;;;0.40;0.40;;;14.20;99.90;;;;;;4917142;29;20040;-68
2022/06/19 05:21:32;;;;;;;0.10;0.10;;;14.10;99.90;;;;;;4902357;29;20080;-68
2022/06/19 05:23:58;;;;;;;0.00;0.00;;;14.20;99.90;;;;;;4896078;29;20497;-68
2022/06/19 05:26:32;;;;;;;0.10;0.10;;;14.20;99.90;;;;;;4896563;29;20572;-67
2022/06/19 05:28:59;;;;;;;0.10;0.10;;;14.20;99.90;;;;;;4897517;29;20041;-68
2022/06/19 05:31:26;;;;;;;6.03;1.85;;;14.10;99.90;;;;;;4909341;29;20503;-68
2022/06/19 05:33:51;;;;;;;0.10;0.10;;;14.10;99.90;;;;;;4915099;29;20047;-68
2022/06/19 05:36:19;;;;;;;0.10;0.10;;;14.10;99.90;;;;;;4904994;29;20594;-68
2022/06/19 05:38:44;;;;;;;0.55;0.38;;;14.10;99.90;;;;;;4898301;29;20049;-68
2022/06/19 05:41:10;;;;;;;0.98;0.68;;;14.10;99.90;;;;;;4914858;29;20048;-68
2022/06/19 05:43:36;;;;;;;0.10;0.10;;;14.20;99.90;;;;;;4911265;29;20559;-68
2022/06/19 05:46:11;;;;;;;0.00;0.00;;;14.10;99.90;;;;;;4896910;29;20071;-68
2022/06/19 05:48:37;;;;;;;0.90;0.50;;;14.10;99.90;;;;;;4895907;29;20093;-67
2022/06/19 05:51:06;;;;;;;0.10;0.10;;;14.10;99.90;;;;;;4896171;29;20520;-68
2022/06/19 05:53:35;;;;;;;0.00;0.00;;;14.00;99.90;;;;;;4911304;29;20052;-68
2022/06/19 05:56:01;;;;;;;0.10;0.10;;;14.10;99.90;;;;;;4910084;29;20434;-68
2022/06/19 05:58:27;;;;;;;1.75;0.98;;;14.20;99.90;;;;;;4896185;29;20131;-68
2022/06/19 06:00:53;;;;;;;0.63;0.63;;;14.10;99.90;;;;;;4897589;29;20055;-68
2022/06/19 06:03:20;;;;;;;0.10;0.10;;;14.30;99.90;;;;;;4897276;29;20045;-68
2022/06/19 06:05:46;;;;;;;0.20;0.20;;;14.30;99.90;;;;;;4909484;29;20468;-68
2022/06/19 06:08:12;;;;;;;1.27;1.17;;;14.30;99.90;;;;;;4916053;29;20126;-68
2022/06/19 06:10:38;;;;;;;0.08;0.08;;;14.40;99.90;;;;;;4912020;29;20044;-68
2022/06/19 06:13:04;;;;;;;0.00;0.00;;;14.40;99.90;;;;;;4897233;29;20100;-68
2022/06/19 06:15:29;;;;;;;0.00;0.00;;;14.40;99.90;;;;;;4905871;29;20135;-68
2022/06/19 06:17:58;;;;;;;0.08;0.08;;;14.50;99.90;;;;;;4895532;29;20493;-68
2022/06/19 06:20:24;;;;;;;0.03;0.03;;;14.40;99.90;;;;;;4896276;29;20045;-68
2022/06/19 06:22:49;;;;;;;0.10;0.10;;;14.50;99.90;;;;;;4912551;29;20075;-68
2022/06/19 06:25:15;;;;;;;0.88;0.88;;;14.60;99.90;;;;;;4899796;29;20083;-68
2022/06/19 06:27:40;;;;;;;2.85;0.55;;;14.50;99.90;;;;;;4896164;29;20056;-68
2022/06/19 06:30:06;;;;;;;0.00;0.00;;;14.60;99.90;;;;;;4897753;29;20473;-68
2022/06/19 06:32:32;;;;;;;0.10;0.10;;;14.60;99.90;;;;;;4896251;29;20060;-67
2022/06/19 06:34:57;;;;;;;0.10;0.10;;;14.60;99.90;;;;;;4911608;29;20052;-68
2022/06/19 06:37:23;;;;;;;4.03;0.85;;;14.60;99.90;;;;;;4914131;29;20052;-68
2022/06/19 06:39:49;;;;;;;0.00;0.00;;;14.60;99.90;;;;;;4904544;29;20147;-68
2022/06/19 06:42:14;;;;;;;0.00;0.00;;;14.50;99.90;;;;;;4895621;29;20060;-68
2022/06/19 06:44:40;;;;;;;0.05;0.05;;;14.50;99.90;;;;;;4895122;29;20049;-67
2022/06/19 06:47:06;;;;;;;0.10;0.10;;;14.60;99.90;;;;;;4896022;29;20060;-68
2022/06/19 06:49:31;;;;;;;0.00;0.00;;;14.50;99.90;;;;;;4895911;29;20048;-68
2022/06/19 06:51:57;;;;;;;0.10;0.10;;;14.50;99.90;;;;;;4897352;29;20893;-68
2022/06/19 06:54:23;;;;;;;6.63;1.60;;;14.50;99.90;;;;;;4895844;29;20485;-68
2022/06/19 06:56:49;;;;;;;0.05;0.05;;;14.50;99.90;;;;;;4905836;29;20052;-68
2022/06/19 06:59:14;;;;;;;0.08;0.08;;;14.60;99.90;;;;;;4914326;29;20067;-68
2022/06/19 07:01:40;;;;;;;0.10;0.10;;;14.60;99.90;;;;;;4915146;29;20056;-68
2022/06/19 07:04:06;;;;;;;1.95;1.10;;;14.70;99.90;;;;;;4911245;29;20056;-68
2022/06/19 07:06:32;;;;;;;0.28;0.28;;;14.70;99.90;;;;;;4895680;29;20040;-68
2022/06/19 07:08:58;;;;;;;0.00;0.00;;;14.70;99.90;;;;;;4894320;29;20408;-68
2022/06/19 07:11:48;;;;;;;0.10;0.10;;;14.70;99.90;;;;;;4896041;29;20056;-68
2022/06/19 07:14:16;;;;;;;0.00;0.00;;;14.80;99.90;;;;;;4896003;29;20843;-68
2022/06/19 07:16:42;;;;;;;0.52;0.52;;;14.70;99.90;;;;;;4895453;29;20053;-68
2022/06/19 07:19:08;;;;;;;0.10;0.10;;;14.80;99.90;;;;;;4896539;29;20072;-68
2022/06/19 07:21:34;;;;;;;0.32;0.32;;;14.70;99.90;;;;;;4895476;29;20055;-69
2022/06/19 07:24:00;;;;;;;0.08;0.08;;;14.80;99.90;;;;;;4893802;29;20049;-68
2022/06/19 07:26:27;;;;;;;0.10;0.10;;;14.80;99.90;;;;;;4895819;29;20595;-68
2022/06/19 07:28:53;;;;;;;0.00;0.00;;;14.80;99.90;;;;;;4895361;29;20519;-68
2022/06/19 07:31:18;;;;;;;0.20;0.20;;;14.90;99.90;;;;;;4895882;29;20048;-68
2022/06/19 07:33:44;;;;;;;0.00;0.00;;;14.80;99.90;;;;;;4893976;29;20061;-68
2022/06/19 07:36:20;;;;;;;0.00;0.00;;;14.80;99.90;;;;;;4903667;29;20056;-68
2022/06/19 07:38:46;;;;;;;0.28;0.28;;;14.90;99.90;;;;;;4913895;29;20111;-68
2022/06/19 07:41:12;;;;;;;0.10;0.10;;;15.00;99.90;;;;;;4902673;29;20474;-68
2022/06/19 07:43:37;;;;;;;0.20;0.20;;;14.90;99.90;;;;;;4895470;29;20052;-68
2022/06/19 07:46:03;;;;;;;0.28;0.28;;;14.90;99.90;;;;;;4905743;29;20481;-68
2022/06/19 07:51:14;;;;;;;0.90;0.32;;;14.90;99.90;;;;;;4910692;29;20048;-68
2022/06/19 07:53:39;;;;;;;0.10;0.10;;;15.00;99.90;;;;;;4897064;29;20048;-68
2022/06/19 07:56:05;;;;;;;0.00;0.00;;;15.00;99.90;;;;;;4900752;29;20055;-68
2022/06/19 07:58:32;;;;;;;0.17;0.17;;;15.00;99.90;;;;;;4913174;29;20087;-68
2022/06/19 08:00:58;;;;;;;0.00;0.00;;;15.00;99.90;;;;;;4913898;29;20055;-68
2022/06/19 08:03:23;;;;;;;0.22;0.22;;;15.00;99.90;;;;;;4907737;29;20056;-68
2022/06/19 08:05:49;;;;;;;0.28;0.28;;;15.10;99.90;;;;;;4913724;29;20900;-68
2022/06/19 08:08:21;;;;;;;0.00;0.00;;;15.10;99.90;;;;;;4914022;29;20052;-68
2022/06/19 08:10:50;;;;;;;0.75;0.75;;;15.10;99.90;;;;;;4902470;29;20048;-68
2022/06/19 08:13:19;;;;;;;0.10;0.10;;;15.10;99.90;;;;;;4894583;29;20063;-68
2022/06/19 08:15:49;;;;;;;0.00;0.00;;;15.10;99.90;;;;;;4895721;29;20048;-68
2022/06/19 08:18:15;;;;;;;0.13;0.13;;;15.10;99.90;;;;;;4892757;29;20173;-68
2022/06/19 08:20:41;;;;;;;0.10;0.10;;;15.10;99.90;;;;;;4892740;29;20049;-68
2022/06/19 08:23:07;;;;;;;0.10;0.10;;;15.20;99.90;;;;;;4895713;29;20438;-68
2022/06/19 08:25:32;;;;;;;0.20;0.20;;;15.20;99.90;;;;;;4893553;29;20109;-68
2022/06/19 08:27:58;;;;;;;0.43;0.43;;;15.20;99.90;;;;;;4894312;29;20116;-68
2022/06/19 08:30:31;;;;;;;0.70;0.70;;;15.20;99.90;;;;;;4891959;29;20143;-68
2022/06/19 08:32:57;;;;;;;0.10;0.10;;;15.20;99.90;;;;;;4894101;29;20449;-67
2022/06/19 08:35:23;;;;;;;0.03;0.03;;;15.20;99.90;;;;;;4892856;29;20056;-68
2022/06/19 08:38:00;;;;;;;0.08;0.08;;;15.20;99.90;;;;;;4908422;29;20497;-68
2022/06/19 08:40:44;;;;;;;0.30;0.30;;;15.30;99.90;;;;;;4913256;29;20040;-68
2022/06/19 08:43:34;;;;;;;0.13;0.13;;;15.40;99.90;;;;;;4912465;29;20468;-68
2022/06/19 08:46:31;;;;;;;0.00;0.00;;;15.40;99.90;;;;;;4910308;29;20048;-68
2022/06/19 08:49:16;;;;;;;0.10;0.10;;;15.50;99.90;;;;;;4912003;29;20728;-68
2022/06/19 08:51:50;;;;;;;0.08;0.08;;;15.50;99.90;;;;;;4911811;29;20052;-68
2022/06/19 08:54:58;;;;;;;5.05;1.55;;;15.60;99.90;;;;;;4908429;29;20468;-68
2022/06/19 08:58:00;;;;;;;0.00;0.00;;;15.70;99.90;;;;;;4897112;29;20064;-68
2022/06/19 09:00:31;;;;;;;0.10;0.10;;;15.90;99.90;;;;;;4913469;29;20152;-68
2022/06/19 09:03:20;;;;;;;0.00;0.00;;;15.90;99.90;;;;;;4915425;29;20412;-68
2022/06/19 09:06:01;;;;;;;2.08;0.65;;;16.00;99.90;;;;;;4915844;29;20467;-68
2022/06/19 09:08:45;;;;;;;4.43;1.15;;;15.80;99.90;;;;;;4914804;29;20052;-68
2022/06/19 09:11:16;;;;;;;0.00;0.00;;;15.80;99.90;;;;;;4912180;29;20044;-68
2022/06/19 09:14:07;;;;;;;0.00;0.00;;;15.70;99.90;;;;;;4916590;29;20096;-69
2022/06/19 09:16:45;;;;;;;0.00;0.00;;;15.60;99.90;;;;;;4916000;29;20048;-68
2022/06/19 09:19:14;;;;;;;0.10;0.10;;;15.60;99.90;;;;;;4910535;29;20484;-69
2022/06/19 09:21:40;;;;;;;2.90;0.90;;;15.70;99.90;;;;;;4916560;29;20048;-68
2022/06/19 09:24:43;;;;;;;0.10;0.10;;;15.70;99.90;;;;;;4915014;29;20052;-68
2022/06/19 09:27:11;;;;;;;0.10;0.10;;;15.70;99.90;;;;;;4910408;29;20444;-68
2022/06/19 09:29:44;;;;;;;0.17;0.17;;;15.80;99.90;;;;;;4914736;29;20106;-68
2022/06/19 09:32:28;;;;;;;0.10;0.10;;;15.80;99.90;;;;;;4916420;29;20535;-68
2022/06/19 09:35:06;;;;;;;0.40;0.40;;;15.90;99.90;;;;;;4907345;29;20456;-68
2022/06/19 09:37:35;;;;;;;0.20;0.20;;;15.90;99.90;;;;;;4908976;29;20136;-68
2022/06/19 09:40:03;;;;;;;0.25;0.25;;;16.00;99.90;;;;;;4911071;29;20063;-68
2022/06/19 09:42:50;;;;;;;0.32;0.32;;;16.10;99.90;;;;;;4897173;29;20520;-68
2022/06/19 09:45:26;;;;;;;0.00;0.00;;;16.10;99.90;;;;;;4895471;29;20053;-68
2022/06/19 09:48:20;;;;;;;0.00;0.00;;;16.40;99.90;;;;;;4905160;29;20507;-68
2022/06/19 09:50:49;;;;;;;;;;;16.50;99.90;;;;;;4916238;29;20048;-69
2022/06/19 09:53:36;;;;;;;0.00;0.00;;;16.80;99.90;;;;;;4916379;29;20055;-69
2022/06/19 09:56:42;;;;;;;0.10;0.10;;;17.10;99.90;;;;;;4914647;29;20119;-69
2022/06/19 09:59:12;;;;;;;0.55;0.55;;;17.00;99.90;;;;;;4909105;29;20055;-69
2022/06/19 10:01:39;;;;;;;0.10;0.10;;;16.90;99.90;;;;;;4914308;29;20075;-69
2022/06/19 10:04:24;;;;;;;0.10;0.10;;;16.90;99.90;;;;;;4916112;29;20055;-69
2022/06/19 10:06:59;;;;;;;0.22;0.22;;;17.00;99.90;;;;;;4914444;29;20052;-68
2022/06/19 10:09:41;;;;;;;0.52;0.22;;;17.30;99.90;;;;;;4914194;29;20103;-68
2022/06/19 10:12:15;;;;;;;1.77;1.45;;;17.60;99.90;;;;;;4915190;29;20138;-69
2022/06/19 10:14:47;;;;;;;0.15;0.15;;;17.50;99.90;;;;;;4906191;29;20052;-69
2022/06/19 10:17:48;;;;;;;0.00;0.00;;;17.50;99.90;;;;;;4894974;29;20175;-69
2022/06/19 10:20:24;;;;;;;0.10;0.10;;;17.80;99.90;;;;;;4891269;29;20493;-69
2022/06/19 10:23:20;;;;;;;0.10;0.10;;;17.60;99.90;;;;;;4898891;29;20066;-69
2022/06/19 10:26:13;;;;;;;0.05;0.05;;;17.50;99.90;;;;;;4915692;29;20119;-69
2022/06/19 10:29:01;;;;;;;0.00;0.00;;;17.50;99.90;;;;;;4898486;29;20056;-68
2022/06/19 10:31:56;;;;;;;0.00;0.00;;;17.30;99.90;;;;;;4896568;29;20050;-69
2022/06/19 10:35:09;;;;;;;0.00;0.00;;;17.50;99.90;;;;;;4894411;29;20115;-69
2022/06/19 10:37:54;;;;;;;0.00;0.00;;;17.80;99.90;;;;;;4866615;29;20087;-69
2022/06/19 10:40:31;;;;;;;0.30;0.30;;;17.90;99.90;;;;;;4903390;29;20060;-69
2022/06/19 10:43:30;;;;;;;0.32;0.32;;;17.90;99.90;;;;;;4915104;29;20500;-68
2022/06/19 10:45:58;;;;;;;5.70;0.68;;;18.00;99.90;;;;;;4915250;29;20056;-69
2022/06/19 10:48:51;;;;;;;0.00;0.00;;;17.90;99.90;;;;;;4912555;29;20134;-69
2022/06/19 10:51:43;;;;;;;0.53;0.53;;;17.80;99.90;;;;;;4914842;29;20040;-68
2022/06/19 10:54:28;;;;;;;0.30;0.30;;;17.80;99.90;;;;;;4913221;29;20056;-69
2022/06/19 10:57:00;;;;;;;0.32;0.32;;;17.80;99.90;;;;;;4910473;29;20048;-68
2022/06/19 10:59:27;;;;;;;0.07;0.07;;;17.80;99.90;;;;;;4914523;29;20139;-68
2022/06/19 11:05:03;;;;;;;0.20;0.20;;;17.80;99.90;;;;;;4906946;29;20052;-68
2022/06/19 11:07:31;;;;;;;0.08;0.08;;;17.60;99.90;;;;;;4904500;29;20056;-69
2022/06/19 11:10:06;;;;;;;0.47;0.30;;;17.60;99.90;;;;;;4911229;29;20100;-69
2022/06/19 11:12:45;;;;;;;0.15;0.15;;;17.60;99.90;;;;;;4913476;29;20396;-69
2022/06/19 11:15:29;;;;;;;0.10;0.10;;;17.70;99.90;;;;;;4899478;29;20082;-69
2022/06/19 11:18:24;;;;;;;0.15;0.15;;;17.70;99.90;;;;;;4894548;29;20056;-69
2022/06/19 11:20:59;;;;;;;0.40;0.40;;;17.60;99.90;;;;;;4899076;29;20044;-68
2022/06/19 11:23:37;;;;;;;0.00;0.00;;;17.60;99.90;;;;;;4913459;29;20176;-69
2022/06/19 11:26:12;;;;;;;0.00;0.00;;;17.60;99.90;;;;;;4926341;29;20044;-69
2022/06/19 11:28:48;;;;;;;0.40;0.40;;;17.60;99.90;;;;;;4914370;29;20048;-69
2022/06/19 11:31:24;;;;;;;0.15;0.15;;;17.60;99.90;;;;;;4909324;29;20122;-68
2022/06/19 11:33:54;;;;;;;0.10;0.10;;;17.40;99.90;;;;;;4914336;29;20056;-68
2022/06/19 11:36:36;;;;;;;0.00;0.00;;;17.40;99.90;;;;;;4908888;29;20068;-68
2022/06/19 11:39:30;;;;;;;0.57;0.50;;;17.40;99.90;;;;;;4898336;29;20040;-68
2022/06/19 11:41:55;;;;;;;0.10;0.10;;;17.40;99.90;;;;;;4914462;29;20048;-68
2022/06/19 11:44:21;;;;;;;0.00;0.00;;;17.30;99.90;;;;;;4903747;29;20445;-68
2022/06/19 11:46:54;;;;;;;0.73;0.73;;;17.30;99.90;;;;;;4895567;29;20052;-68
2022/06/19 11:49:39;;;;;;;0.20;0.20;;;17.20;99.90;;;;;;4894064;29;20056;-68
2022/06/19 11:52:16;;;;;;;0.00;0.00;;;17.30;99.90;;;;;;4892670;29;20060;-69
2022/06/19 11:54:47;;;;;;;0.08;0.08;;;17.40;99.90;;;;;;4894681;29;20072;-68
2022/06/19 11:57:28;;;;;;;0.00;0.00;;;17.60;99.90;;;;;;4892518;29;20044;-68
2022/06/19 11:59:56;;;;;;;0.00;0.00;;;17.80;99.90;;;;;;4895186;29;20048;-68
2022/06/19 12:02:28;;;;;;;0.10;0.10;;;18.00;99.90;;;;;;4892575;29;20063;-68
2022/06/19 12:04:57;;;;;;;0.10;0.10;;;18.00;99.90;;;;;;4894651;29;20048;-68
2022/06/19 12:07:27;;;;;;;0.05;0.05;;;18.20;99.90;;;;;;4893088;29;20083;-68
2022/06/19 12:10:13;;;;;;;0.65;0.55;;;18.30;99.90;;;;;;4911205;29;20048;-69
2022/06/19 12:12:38;;;;;;;0.00;0.00;;;18.50;99.90;;;;;;4913595;29;20052;-68
2022/06/19 12:15:13;;;;;;;0.08;0.08;;;18.40;99.90;;;;;;4903592;29;20061;-69
2022/06/19 12:17:43;;;;;;;0.00;0.00;;;18.60;99.90;;;;;;4904489;29;20063;-69
2022/06/19 12:20:09;;;;;;;0.20;0.20;;;18.60;99.90;;;;;;4912364;29;20048;-68
2022/06/19 12:22:43;;;;;;;0.57;0.57;;;18.70;99.90;;;;;;4912038;29;20055;-68
2022/06/19 12:25:28;;;;;;;0.00;0.00;;;18.80;99.90;;;;;;4896832;29;20052;-69
2022/06/19 12:28:16;;;;;;;0.00;0.00;;;18.80;99.90;;;;;;4895121;29;20057;-69
2022/06/19 12:30:48;;;;;;;0.00;0.00;;;19.00;99.90;;;;;;4893673;29;20139;-68
2022/06/19 12:33:27;;;;;;;0.00;0.00;;;19.50;99.90;;;;;;4914378;29;20056;-68
2022/06/19 12:35:52;;;;;;;0.00;0.00;;;19.40;99.90;;;;;;4912923;29;20501;-68
2022/06/19 12:38:21;;;;;;;0.00;0.00;;;19.10;99.90;;;;;;4917414;29;20055;-69
2022/06/19 12:41:14;;;;;;;4.00;1.20;;;19.10;99.90;;;;;;4913156;29;20168;-68
2022/06/19 12:43:40;;;;;;;0.00;0.00;;;19.10;99.90;;;;;;4915787;29;20090;-68
2022/06/19 12:46:20;;;;;;;0.00;0.00;;;19.30;99.90;;;;;;4917377;29;20457;-68
2022/06/19 12:49:24;;;;;;;0.22;0.22;;;19.80;99.90;;;;;;4909269;29;20048;-68
2022/06/19 12:52:27;;;;;;;0.00;0.00;;;20.40;99.90;;;;;;4898257;29;20529;-69
2022/06/19 12:55:20;;;;;;;0.00;0.00;;;20.30;99.90;;;;;;4908293;29;20052;-68
2022/06/19 12:58:24;;;;;;;0.40;0.40;;;20.60;99.90;;;;;;4912360;29;20044;-69
2022/06/19 13:01:18;;;;;;;0.00;0.00;;;21.00;99.90;;;;;;4895435;29;20063;-68
2022/06/19 13:04:03;;;;;;;0.90;0.68;;;21.40;99.90;;;;;;4902373;29;20094;-69
2022/06/19 13:06:38;;;;;;;0.00;0.00;;;21.40;99.90;;;;;;4912928;29;20080;-69
2022/06/19 13:09:18;;;;;;;0.00;0.00;;;21.50;99.90;;;;;;4912872;29;20055;-69
2022/06/19 13:12:05;;;;;;;1.08;0.57;;;21.00;99.90;;;;;;4896740;29;20088;-69
2022/06/19 13:15:04;;;;;;;0.40;0.40;;;20.50;99.90;;;;;;4904311;29;20060;-69
2022/06/19 13:17:52;;;;;;;0.73;0.35;;;20.50;99.90;;;;;;4904261;29;20057;-69
2022/06/19 13:20:36;;;;;;;0.20;0.20;;;20.60;99.90;;;;;;4896257;29;20055;-69